sensor_id;sensor_type;location;lat;lon;timestamp;temperature;humidity
18147;DHT22;9199;48.832;9.182;2023-07-30T00:00:58;17.10;99.90
18147;DHT22;9199;48.832;9.182;2023-07-30T00:03:25;17.10;99.90
18147;DHT22;9199;48.832;9.182;2023-07-30T00:05:53;17.20;99.90
18147;DHT22;9199;48.832;9.182;2023-07-30T00:08:20;17.20;99.90
18147;DHT22;9199;48.832;9.182;2023-07-30T00:10:46;17.20;99.90
18147;DHT22;9199;48.832;9.182;2023-07-30T00:13:15;17.10;99.90
18147;DHT22;9199;48.832;9.182;2023-07-30T00:15:41;17.10;99.90
18147;DHT22;9199;48.832;9.182;2023-07-30T00:18:08;17.20;99.90
18147;DHT22;9199;48.832;9.182;2023-07-30T00:20:35;17.20;99.90
18147;DHT22;9199;48.832;9.182;2023-07-30T00:23:02;17.20;99.90
18147;DHT22;9199;48.832;9.182;2023-07-30T00:25:29;17.20;99.90
18147;DHT22;9199;48.832;9.182;2023-07-30T00:27:55;17.20;99.90
18147;DHT22;9199;48.832;9.182;2023-07-30T00:30:23;17.20;99.90
18147;DHT22;9199;48.832;9.182;2023-07-30T00:32:50;17.20;99.90
18147;DHT22;9199;48.832;9.182;2023-07-30T00:35:17;17.20;99.90
18147;DHT22;9199;48.832;9.182;2023-07-30T00:37:44;17.20;99.90
18147;DHT22;9199;48.832;9.182;2023-07-30T00:40:11;17.20;99.90
18147;DHT22;9199;48.832;9.182;2023-07-30T00:42:38;17.20;99.90
18147;DHT22;9199;48.832;9.182;2023-07-30T00:45:06;17.20;99.90
18147;DHT22;9199;48.832;9.182;2023-07-30T00:47:34;17.20;99.90
18147;DHT22;9199;48.832;9.182;2023-07-30T00:50:01;17.20;99.90
18147;DHT22;9199;48.832;9.182;2023-07-30T00:52:28;17.30;99.90
18147;DHT22;9199;48.832;9.182;2023-07-30T00:54:57;17.20;99.90
18147;DHT22;9199;48.832;9.182;2023-07-30T00:57:24;17.20;99.90
18147;DHT22;9199;48.832;9.182;2023-07-30T00:59:52;17.10;99.90
18147;DHT22;9199;48.832;9.182;2023-07-30T01:02:19;17.10;99.90
18147;DHT22;9199;48.832;9.182;2023-07-30T01:04:48;17.10;99.90
18147;DHT22;9199;48.832;9.182;2023-07-30T01:07:17;17.10;99.90
18147;DHT22;9199;48.832;9.182;2023-07-30T01:09:43;17.10;99.90
18147;DHT22;9199;48.832;9.182;2023-07-30T01:12:10;17.10;99.90
18147;DHT22;9199;48.832;9.182;2023-07-30T01:14:37;17.20;99.90
18147;DHT22;9199;48.832;9.182;2023-07-30T01:17:05;17.20;99.90
18147;DHT22;9199;48.832;9.182;2023-07-30T01:19:32;17.20;99.90
18147;DHT22;9199;48.832;9.182;2023-07-30T01:22:00;17.20;99.90
18147;DHT22;9199;48.832;9.182;2023-07-30T01:24:26;17.30;99.90
18147;DHT22;9199;48.832;9.182;2023-07-30T01:26:56;17.30;99.90
18147;DHT22;9199;48.832;9.182;2023-07-30T01:29:38;17.30;99.90
18147;DHT22;9199;48.832;9.182;2023-07-30T01:32:08;17.40;99.90
18147;DHT22;9199;48.832;9.182;2023-07-30T01:34:37;17.40;99.90
18147;DHT22;9199;48.832;9.182;2023-07-30T01:37:09;17.40;99.90
18147;DHT22;9199;48.832;9.182;2023-07-30T01:39:37;17.40;99.90
18147;DHT22;9199;48.832;9.182;2023-07-30T01:42:04;17.40;99.90
18147;DHT22;9199;48.832;9.182;2023-07-30T01:44:31;17.40;99.90
18147;DHT22;9199;48.832;9.182;2023-07-30T01:46:58;17.40;99.90
18147;DHT22;9199;48.832;9.182;2023-07-30T01:49:25;17.40;99.90
18147;DHT22;9199;48.832;9.182;2023-07-30T01:51:51;17.40;99.90
18147;DHT22;9199;48.832;9.182;2023-07-30T01:54:19;17.40;99.90
18147;DHT22;9199;48.832;9.182;2023-07-30T01:56:46;17.40;99.90
18147;DHT22;9199;48.832;9.182;2023-07-30T01:59:13;17.40;99.90
18147;DHT22;9199;48.832;9.182;2023-07-30T02:01:40;17.40;99.90
18147;DHT22;9199;48.832;9.182;2023-07-30T02:04:07;17.40;99.90
18147;DHT22;9199;48.832;9.182;2023-07-30T02:06:33;17.40;99.90
18147;DHT22;9199;48.832;9.182;2023-07-30T02:09:00;17.40;99.90
18147;DHT22;9199;48.832;9.182;2023-07-30T02:11:28;17.40;99.90
18147;DHT22;9199;48.832;9.182;2023-07-30T02:13:55;17.50;99.90
18147;DHT22;9199;48.832;9.182;2023-07-30T02:16:21;17.50;99.90
18147;DHT22;9199;48.832;9.182;2023-07-30T02:18:48;17.50;99.90
18147;DHT22;9199;48.832;9.182;2023-07-30T02:21:15;17.50;99.90
18147;DHT22;9199;48.832;9.182;2023-07-30T02:23:41;17.50;99.90
18147;DHT22;9199;48.832;9.182;2023-07-30T02:26:08;17.50;99.90
18147;DHT22;9199;48.832;9.182;2023-07-30T02:28:36;17.50;99.90
18147;DHT22;9199;48.832;9.182;2023-07-30T02:31:03;17.50;99.90
18147;DHT22;9199;48.832;9.182;2023-07-30T02:33:29;17.50;99.90
18147;DHT22;9199;48.832;9.182;2023-07-30T02:35:56;17.40;99.90
18147;DHT22;9199;48.832;9.182;2023-07-30T02:38:23;17.40;99.90
18147;DHT22;9199;48.832;9.182;2023-07-30T02:40:49;17.30;99.90
18147;DHT22;9199;48.832;9.182;2023-07-30T02:43:16;17.40;99.90
18147;DHT22;9199;48.832;9.182;2023-07-30T02:45:47;17.40;99.90
18147;DHT22;9199;48.832;9.182;2023-07-30T02:48:13;17.30;99.90
18147;DHT22;9199;48.832;9.182;2023-07-30T02:50:40;17.40;99.90
18147;DHT22;9199;48.832;9.182;2023-07-30T02:53:07;17.40;99.90
18147;DHT22;9199;48.832;9.182;2023-07-30T02:55:33;17.40;99.90
18147;DHT22;9199;48.832;9.182;2023-07-30T02:58:00;17.40;99.90
18147;DHT22;9199;48.832;9.182;2023-07-30T03:00:27;17.40;99.90
18147;DHT22;9199;48.832;9.182;2023-07-30T03:02:56;17.40;99.90
18147;DHT22;9199;48.832;9.182;2023-07-30T03:05:23;17.40;99.90
18147;DHT22;9199;48.832;9.182;2023-07-30T03:07:49;17.40;99.90
18147;DHT22;9199;48.832;9.182;2023-07-30T03:10:16;17.30;99.90
18147;DHT22;9199;48.832;9.182;2023-07-30T03:12:43;17.30;99.90
18147;DHT22;9199;48.832;9.182;2023-07-30T03:15:09;17.30;99.90
18147;DHT22;9199;48.832;9.182;2023-07-30T03:17:36;17.30;99.90
18147;DHT22;9199;48.832;9.182;2023-07-30T03:20:06;17.20;99.90
18147;DHT22;9199;48.832;9.182;2023-07-30T03:22:34;17.20;99.90
18147;DHT22;9199;48.832;9.182;2023-07-30T03:25:01;17.20;99.90
18147;DHT22;9199;48.832;9.182;2023-07-30T03:27:27;17.30;99.90
18147;DHT22;9199;48.832;9.182;2023-07-30T03:29:54;17.20;99.90
18147;DHT22;9199;48.832;9.182;2023-07-30T03:32:21;17.30;99.90
18147;DHT22;9199;48.832;9.182;2023-07-30T03:34:47;17.30;99.90
18147;DHT22;9199;48.832;9.182;2023-07-30T03:37:15;17.30;99.90
18147;DHT22;9199;48.832;9.182;2023-07-30T03:39:42;17.30;99.90
18147;DHT22;9199;48.832;9.182;2023-07-30T03:42:09;17.30;99.90
18147;DHT22;9199;48.832;9.182;2023-07-30T03:44:36;17.30;99.90
18147;DHT22;9199;48.832;9.182;2023-07-30T03:47:03;17.40;99.90
18147;DHT22;9199;48.832;9.182;2023-07-30T03:49:29;17.40;99.90
18147;DHT22;9199;48.832;9.182;2023-07-30T03:51:56;17.40;99.90
18147;DHT22;9199;48.832;9.182;2023-07-30T03:54:24;17.30;99.90
18147;DHT22;9199;48.832;9.182;2023-07-30T03:56:51;17.30;99.90
18147;DHT22;9199;48.832;9.182;2023-07-30T03:59:17;17.30;99.90
18147;DHT22;9199;48.832;9.182;2023-07-30T04:01:44;17.40;99.90
18147;DHT22;9199;48.832;9.182;2023-07-30T04:04:11;17.40;99.90
18147;DHT22;9199;48.832;9.182;2023-07-30T04:06:37;17.40;99.90
18147;DHT22;9199;48.832;9.182;2023-07-30T04:09:04;17.40;99.90
18147;DHT22;9199;48.832;9.182;2023-07-30T04:11:32;17.50;99.90
18147;DHT22;9199;48.832;9.182;2023-07-30T04:13:59;17.50;99.90
18147;DHT22;9199;48.832;9.182;2023-07-30T04:16:25;17.50;99.90
18147;DHT22;9199;48.832;9.182;2023-07-30T04:18:52;17.50;99.90
18147;DHT22;9199;48.832;9.182;2023-07-30T04:21:19;17.60;99.90
18147;DHT22;9199;48.832;9.182;2023-07-30T04:23:45;17.60;99.90
18147;DHT22;9199;48.832;9.182;2023-07-30T04:26:13;17.60;99.90
18147;DHT22;9199;48.832;9.182;2023-07-30T04:28:41;17.60;99.90
18147;DHT22;9199;48.832;9.182;2023-07-30T04:31:08;17.60;99.90
18147;DHT22;9199;48.832;9.182;2023-07-30T04:33:34;17.60;99.90
18147;DHT22;9199;48.832;9.182;2023-07-30T04:36:01;17.60;99.90
18147;DHT22;9199;48.832;9.182;2023-07-30T04:38:28;17.50;99.90
18147;DHT22;9199;48.832;9.182;2023-07-30T04:40:57;17.50;99.90
18147;DHT22;9199;48.832;9.182;2023-07-30T04:43:24;17.50;99.90
18147;DHT22;9199;48.832;9.182;2023-07-30T04:45:52;17.60;99.90
18147;DHT22;9199;48.832;9.182;2023-07-30T04:48:19;17.50;99.90
18147;DHT22;9199;48.832;9.182;2023-07-30T04:50:45;17.50;99.90
18147;DHT22;9199;48.832;9.182;2023-07-30T04:53:12;17.60;99.90
18147;DHT22;9199;48.832;9.182;2023-07-30T04:55:39;17.60;99.90
18147;DHT22;9199;48.832;9.182;2023-07-30T04:58:05;17.60;99.90
18147;DHT22;9199;48.832;9.182;2023-07-30T05:00:32;17.70;99.90
18147;DHT22;9199;48.832;9.182;2023-07-30T05:03:00;17.70;99.90
18147;DHT22;9199;48.832;9.182;2023-07-30T05:05:27;17.80;99.90
18147;DHT22;9199;48.832;9.182;2023-07-30T05:07:53;17.90;99.90
18147;DHT22;9199;48.832;9.182;2023-07-30T05:10:22;17.90;99.90
18147;DHT22;9199;48.832;9.182;2023-07-30T05:12:49;17.90;99.90
18147;DHT22;9199;48.832;9.182;2023-07-30T05:15:16;18.00;99.90
18147;DHT22;9199;48.832;9.182;2023-07-30T05:17:42;18.00;99.90
18147;DHT22;9199;48.832;9.182;2023-07-30T05:20:11;17.90;99.90
18147;DHT22;9199;48.832;9.182;2023-07-30T05:22:38;17.90;99.90
18147;DHT22;9199;48.832;9.182;2023-07-30T05:25:05;18.00;99.90
18147;DHT22;9199;48.832;9.182;2023-07-30T05:27:32;17.90;99.90
18147;DHT22;9199;48.832;9.182;2023-07-30T05:29:58;17.90;99.90
18147;DHT22;9199;48.832;9.182;2023-07-30T05:32:25;18.00;99.90
18147;DHT22;9199;48.832;9.182;2023-07-30T05:34:52;18.00;99.90
18147;DHT22;9199;48.832;9.182;2023-07-30T05:37:20;18.00;99.90
18147;DHT22;9199;48.832;9.182;2023-07-30T05:39:48;17.90;99.90
18147;DHT22;9199;48.832;9.182;2023-07-30T05:42:15;17.90;99.90
18147;DHT22;9199;48.832;9.182;2023-07-30T05:44:41;17.90;99.90
18147;DHT22;9199;48.832;9.182;2023-07-30T05:47:08;17.90;99.90
18147;DHT22;9199;48.832;9.182;2023-07-30T05:49:35;17.90;99.90
18147;DHT22;9199;48.832;9.182;2023-07-30T05:52:02;17.90;99.90
18147;DHT22;9199;48.832;9.182;2023-07-30T05:54:30;17.90;99.90
18147;DHT22;9199;48.832;9.182;2023-07-30T05:56:57;17.80;99.90
18147;DHT22;9199;48.832;9.182;2023-07-30T05:59:23;17.80;99.90
18147;DHT22;9199;48.832;9.182;2023-07-30T06:01:50;17.90;99.90
18147;DHT22;9199;48.832;9.182;2023-07-30T06:04:16;17.90;99.90
18147;DHT22;9199;48.832;9.182;2023-07-30T06:06:43;17.90;99.90
18147;DHT22;9199;48.832;9.182;2023-07-30T06:09:10;18.00;99.90
18147;DHT22;9199;48.832;9.182;2023-07-30T06:11:39;18.00;99.90
18147;DHT22;9199;48.832;9.182;2023-07-30T06:14:06;18.10;99.90
18147;DHT22;9199;48.832;9.182;2023-07-30T06:16:32;18.20;99.90
18147;DHT22;9199;48.832;9.182;2023-07-30T06:18:59;18.30;99.90
18147;DHT22;9199;48.832;9.182;2023-07-30T06:21:26;18.50;99.90
18147;DHT22;9199;48.832;9.182;2023-07-30T06:23:52;18.60;99.90
18147;DHT22;9199;48.832;9.182;2023-07-30T06:26:19;18.70;99.90
18147;DHT22;9199;48.832;9.182;2023-07-30T06:28:47;18.80;99.90
18147;DHT22;9199;48.832;9.182;2023-07-30T06:31:14;18.90;99.90
18147;DHT22;9199;48.832;9.182;2023-07-30T06:33:40;19.00;99.90
18147;DHT22;9199;48.832;9.182;2023-07-30T06:36:07;19.00;99.90
18147;DHT22;9199;48.832;9.182;2023-07-30T06:38:34;19.00;99.90
18147;DHT22;9199;48.832;9.182;2023-07-30T06:41:00;19.10;99.90
18147;DHT22;9199;48.832;9.182;2023-07-30T06:43:27;19.30;99.90
18147;DHT22;9199;48.832;9.182;2023-07-30T06:45:55;19.60;99.90
18147;DHT22;9199;48.832;9.182;2023-07-30T06:48:22;20.00;99.90
18147;DHT22;9199;48.832;9.182;2023-07-30T06:50:49;20.50;99.90
18147;DHT22;9199;48.832;9.182;2023-07-30T06:53:15;20.90;99.90
18147;DHT22;9199;48.832;9.182;2023-07-30T06:55:42;21.00;99.90
18147;DHT22;9199;48.832;9.182;2023-07-30T06:58:10;21.10;99.90
18147;DHT22;9199;48.832;9.182;2023-07-30T07:00:36;21.00;99.90
18147;DHT22;9199;48.832;9.182;2023-07-30T07:03:04;20.90;99.90
18147;DHT22;9199;48.832;9.182;2023-07-30T07:05:31;20.80;99.90
18147;DHT22;9199;48.832;9.182;2023-07-30T07:07:58;20.80;99.90
18147;DHT22;9199;48.832;9.182;2023-07-30T07:10:25;20.70;99.90
18147;DHT22;9199;48.832;9.182;2023-07-30T07:12:51;20.60;99.90
18147;DHT22;9199;48.832;9.182;2023-07-30T07:15:18;20.50;99.90
18147;DHT22;9199;48.832;9.182;2023-07-30T07:17:45;20.40;99.90
18147;DHT22;9199;48.832;9.182;2023-07-30T07:20:13;20.40;99.90
18147;DHT22;9199;48.832;9.182;2023-07-30T07:22:39;20.30;99.90
18147;DHT22;9199;48.832;9.182;2023-07-30T07:25:07;20.20;99.90
18147;DHT22;9199;48.832;9.182;2023-07-30T07:27:34;20.20;99.90
18147;DHT22;9199;48.832;9.182;2023-07-30T07:30:01;20.10;99.90
18147;DHT22;9199;48.832;9.182;2023-07-30T07:32:28;20.00;99.90
18147;DHT22;9199;48.832;9.182;2023-07-30T07:34:54;19.90;99.90
18147;DHT22;9199;48.832;9.182;2023-07-30T07:37:23;19.80;99.90
18147;DHT22;9199;48.832;9.182;2023-07-30T07:39:49;19.70;99.90
18147;DHT22;9199;48.832;9.182;2023-07-30T07:42:17;19.60;99.90
18147;DHT22;9199;48.832;9.182;2023-07-30T07:44:43;19.40;99.90
18147;DHT22;9199;48.832;9.182;2023-07-30T07:47:11;19.20;99.90
18147;DHT22;9199;48.832;9.182;2023-07-30T07:49:38;19.00;99.90
18147;DHT22;9199;48.832;9.182;2023-07-30T07:52:05;18.70;99.90
18147;DHT22;9199;48.832;9.182;2023-07-30T07:54:33;18.60;99.90
18147;DHT22;9199;48.832;9.182;2023-07-30T07:57:00;18.60;99.90
18147;DHT22;9199;48.832;9.182;2023-07-30T07:59:27;18.60;99.90
18147;DHT22;9199;48.832;9.182;2023-07-30T08:01:54;18.80;99.90
18147;DHT22;9199;48.832;9.182;2023-07-30T08:04:20;19.00;99.90
18147;DHT22;9199;48.832;9.182;2023-07-30T08:06:47;19.40;99.90
18147;DHT22;9199;48.832;9.182;2023-07-30T08:09:13;19.60;99.90
18147;DHT22;9199;48.832;9.182;2023-07-30T08:11:41;19.80;99.90
18147;DHT22;9199;48.832;9.182;2023-07-30T08:14:08;19.90;99.90
18147;DHT22;9199;48.832;9.182;2023-07-30T08:16:38;20.00;99.90
18147;DHT22;9199;48.832;9.182;2023-07-30T08:19:05;20.00;99.90
18147;DHT22;9199;48.832;9.182;2023-07-30T08:21:31;20.00;99.90
18147;DHT22;9199;48.832;9.182;2023-07-30T08:23:58;20.00;99.90
18147;DHT22;9199;48.832;9.182;2023-07-30T08:26:25;20.30;99.90
18147;DHT22;9199;48.832;9.182;2023-07-30T08:28:53;20.40;99.90
18147;DHT22;9199;48.832;9.182;2023-07-30T08:31:20;20.70;99.90
18147;DHT22;9199;48.832;9.182;2023-07-30T08:33:46;20.90;99.90
18147;DHT22;9199;48.832;9.182;2023-07-30T08:36:13;21.30;99.90
18147;DHT22;9199;48.832;9.182;2023-07-30T08:38:40;21.90;99.90
18147;DHT22;9199;48.832;9.182;2023-07-30T08:41:07;22.40;99.90
18147;DHT22;9199;48.832;9.182;2023-07-30T08:43:34;22.60;99.90
18147;DHT22;9199;48.832;9.182;2023-07-30T08:46:03;22.70;99.90
18147;DHT22;9199;48.832;9.182;2023-07-30T08:48:30;22.50;99.90
18147;DHT22;9199;48.832;9.182;2023-07-30T08:50:57;22.50;99.90
18147;DHT22;9199;48.832;9.182;2023-07-30T08:53:24;22.30;99.90
18147;DHT22;9199;48.832;9.182;2023-07-30T08:55:52;22.30;99.90
18147;DHT22;9199;48.832;9.182;2023-07-30T08:58:20;22.50;99.90
18147;DHT22;9199;48.832;9.182;2023-07-30T09:00:49;22.50;99.90
18147;DHT22;9199;48.832;9.182;2023-07-30T09:03:18;22.40;99.90
18147;DHT22;9199;48.832;9.182;2023-07-30T09:05:46;22.40;99.90
18147;DHT22;9199;48.832;9.182;2023-07-30T09:08:14;22.10;99.90
18147;DHT22;9199;48.832;9.182;2023-07-30T09:10:41;22.00;99.90
18147;DHT22;9199;48.832;9.182;2023-07-30T09:13:08;21.90;99.90
18147;DHT22;9199;48.832;9.182;2023-07-30T09:15:36;22.00;99.90
18147;DHT22;9199;48.832;9.182;2023-07-30T09:18:04;22.00;99.90
18147;DHT22;9199;48.832;9.182;2023-07-30T09:20:38;21.90;99.90
18147;DHT22;9199;48.832;9.182;2023-07-30T09:23:05;22.00;99.90
18147;DHT22;9199;48.832;9.182;2023-07-30T09:25:32;21.90;99.90
18147;DHT22;9199;48.832;9.182;2023-07-30T09:27:59;21.80;99.90
18147;DHT22;9199;48.832;9.182;2023-07-30T09:30:26;21.60;99.90
18147;DHT22;9199;48.832;9.182;2023-07-30T09:32:55;21.60;99.90
18147;DHT22;9199;48.832;9.182;2023-07-30T09:35:23;21.70;99.90
18147;DHT22;9199;48.832;9.182;2023-07-30T09:37:58;21.80;99.90
18147;DHT22;9199;48.832;9.182;2023-07-30T09:40:31;21.90;99.90
18147;DHT22;9199;48.832;9.182;2023-07-30T09:42:58;21.90;99.90
18147;DHT22;9199;48.832;9.182;2023-07-30T09:45:25;22.10;99.90
18147;DHT22;9199;48.832;9.182;2023-07-30T09:47:54;22.70;99.90
18147;DHT22;9199;48.832;9.182;2023-07-30T09:50:21;23.00;99.90
18147;DHT22;9199;48.832;9.182;2023-07-30T09:52:49;23.20;99.90
18147;DHT22;9199;48.832;9.182;2023-07-30T09:55:18;23.00;99.90
18147;DHT22;9199;48.832;9.182;2023-07-30T09:57:45;22.40;99.90
18147;DHT22;9199;48.832;9.182;2023-07-30T10:00:12;22.00;99.90
18147;DHT22;9199;48.832;9.182;2023-07-30T10:02:41;21.90;99.90
18147;DHT22;9199;48.832;9.182;2023-07-30T10:05:14;21.90;99.90
18147;DHT22;9199;48.832;9.182;2023-07-30T10:07:44;22.20;99.90
18147;DHT22;9199;48.832;9.182;2023-07-30T10:10:13;22.50;99.90
18147;DHT22;9199;48.832;9.182;2023-07-30T10:12:41;22.90;99.90
18147;DHT22;9199;48.832;9.182;2023-07-30T10:15:09;23.00;99.90
18147;DHT22;9199;48.832;9.182;2023-07-30T10:17:36;23.20;99.90
18147;DHT22;9199;48.832;9.182;2023-07-30T10:20:23;23.30;99.90
18147;DHT22;9199;48.832;9.182;2023-07-30T10:22:54;23.60;99.90
18147;DHT22;9199;48.832;9.182;2023-07-30T10:25:21;23.60;99.90
18147;DHT22;9199;48.832;9.182;2023-07-30T10:27:53;23.90;99.90
18147;DHT22;9199;48.832;9.182;2023-07-30T10:30:20;24.20;99.90
18147;DHT22;9199;48.832;9.182;2023-07-30T10:33:09;24.10;99.90
18147;DHT22;9199;48.832;9.182;2023-07-30T10:35:39;24.50;99.90
18147;DHT22;9199;48.832;9.182;2023-07-30T10:38:17;24.90;99.90
18147;DHT22;9199;48.832;9.182;2023-07-30T10:41:04;24.90;99.90
18147;DHT22;9199;48.832;9.182;2023-07-30T10:43:35;24.90;98.60
18147;DHT22;9199;48.832;9.182;2023-07-30T10:46:02;24.70;98.90
18147;DHT22;9199;48.832;9.182;2023-07-30T10:48:33;24.40;98.70
18147;DHT22;9199;48.832;9.182;2023-07-30T10:51:01;24.20;99.60
18147;DHT22;9199;48.832;9.182;2023-07-30T10:53:28;24.70;99.10
18147;DHT22;9199;48.832;9.182;2023-07-30T10:55:58;24.80;98.80
18147;DHT22;9199;48.832;9.182;2023-07-30T10:58:26;24.90;97.60
18147;DHT22;9199;48.832;9.182;2023-07-30T11:00:54;25.10;97.50
18147;DHT22;9199;48.832;9.182;2023-07-30T11:03:24;25.70;97.30
18147;DHT22;9199;48.832;9.182;2023-07-30T11:05:52;26.20;95.80
18147;DHT22;9199;48.832;9.182;2023-07-30T11:08:19;26.20;96.10
18147;DHT22;9199;48.832;9.182;2023-07-30T11:10:46;25.20;96.80
18147;DHT22;9199;48.832;9.182;2023-07-30T11:13:13;23.90;97.60
18147;DHT22;9199;48.832;9.182;2023-07-30T11:15:41;23.10;99.20
18147;DHT22;9199;48.832;9.182;2023-07-30T11:18:12;23.60;99.90
18147;DHT22;9199;48.832;9.182;2023-07-30T11:20:39;24.20;99.80
18147;DHT22;9199;48.832;9.182;2023-07-30T11:23:18;24.60;99.00
18147;DHT22;9199;48.832;9.182;2023-07-30T11:25:46;24.00;99.90
18147;DHT22;9199;48.832;9.182;2023-07-30T11:28:15;23.70;99.90
18147;DHT22;9199;48.832;9.182;2023-07-30T11:30:42;23.40;99.90
18147;DHT22;9199;48.832;9.182;2023-07-30T11:33:16;22.90;99.90
18147;DHT22;9199;48.832;9.182;2023-07-30T11:35:43;22.70;99.90
18147;DHT22;9199;48.832;9.182;2023-07-30T11:38:10;22.70;99.90
18147;DHT22;9199;48.832;9.182;2023-07-30T11:40:38;22.50;99.90
18147;DHT22;9199;48.832;9.182;2023-07-30T11:43:05;23.40;99.90
18147;DHT22;9199;48.832;9.182;2023-07-30T11:45:32;23.30;99.90
18147;DHT22;9199;48.832;9.182;2023-07-30T11:48:06;23.90;99.90
18147;DHT22;9199;48.832;9.182;2023-07-30T11:50:47;24.70;99.90
18147;DHT22;9199;48.832;9.182;2023-07-30T11:53:14;24.80;99.60
18147;DHT22;9199;48.832;9.182;2023-07-30T11:55:42;25.30;99.90
18147;DHT22;9199;48.832;9.182;2023-07-30T11:58:10;26.30;97.70
18147;DHT22;9199;48.832;9.182;2023-07-30T12:00:37;26.50;96.50
18147;DHT22;9199;48.832;9.182;2023-07-30T12:03:05;26.40;96.20
18147;DHT22;9199;48.832;9.182;2023-07-30T12:05:33;26.70;96.20
18147;DHT22;9199;48.832;9.182;2023-07-30T12:08:02;27.40;94.70
18147;DHT22;9199;48.832;9.182;2023-07-30T12:10:41;27.70;92.80
18147;DHT22;9199;48.832;9.182;2023-07-30T12:13:11;27.10;93.10
18147;DHT22;9199;48.832;9.182;2023-07-30T12:15:38;27.30;93.80
18147;DHT22;9199;48.832;9.182;2023-07-30T12:18:05;27.60;92.30
18147;DHT22;9199;48.832;9.182;2023-07-30T12:20:32;27.80;92.60
18147;DHT22;9199;48.832;9.182;2023-07-30T12:22:58;27.90;91.80
18147;DHT22;9199;48.832;9.182;2023-07-30T12:25:26;27.00;91.60
18147;DHT22;9199;48.832;9.182;2023-07-30T12:27:54;26.40;92.60
18147;DHT22;9199;48.832;9.182;2023-07-30T12:30:20;26.90;92.60
18147;DHT22;9199;48.832;9.182;2023-07-30T12:32:47;27.40;91.90
18147;DHT22;9199;48.832;9.182;2023-07-30T12:35:14;26.60;93.10
18147;DHT22;9199;48.832;9.182;2023-07-30T12:37:41;26.00;94.90
18147;DHT22;9199;48.832;9.182;2023-07-30T12:40:08;26.00;94.10
18147;DHT22;9199;48.832;9.182;2023-07-30T12:42:36;26.40;93.20
18147;DHT22;9199;48.832;9.182;2023-07-30T12:45:04;26.40;93.40
18147;DHT22;9199;48.832;9.182;2023-07-30T12:47:30;26.50;93.00
18147;DHT22;9199;48.832;9.182;2023-07-30T12:49:57;26.70;92.60
18147;DHT22;9199;48.832;9.182;2023-07-30T12:52:28;27.20;91.80
18147;DHT22;9199;48.832;9.182;2023-07-30T12:54:55;27.50;91.50
18147;DHT22;9199;48.832;9.182;2023-07-30T12:57:24;28.20;90.40
18147;DHT22;9199;48.832;9.182;2023-07-30T12:59:53;28.50;88.00
18147;DHT22;9199;48.832;9.182;2023-07-30T13:02:20;28.00;87.00
18147;DHT22;9199;48.832;9.182;2023-07-30T13:04:47;27.50;89.70
18147;DHT22;9199;48.832;9.182;2023-07-30T13:07:16;27.90;90.30
18147;DHT22;9199;48.832;9.182;2023-07-30T13:09:45;28.50;87.50
18147;DHT22;9199;48.832;9.182;2023-07-30T13:12:15;28.90;83.20
18147;DHT22;9199;48.832;9.182;2023-07-30T13:14:42;28.70;84.00
18147;DHT22;9199;48.832;9.182;2023-07-30T13:17:13;28.50;84.10
18147;DHT22;9199;48.832;9.182;2023-07-30T13:19:40;28.40;82.30
18147;DHT22;9199;48.832;9.182;2023-07-30T13:22:07;28.30;81.50
18147;DHT22;9199;48.832;9.182;2023-07-30T13:24:34;28.60;78.80
18147;DHT22;9199;48.832;9.182;2023-07-30T13:27:07;27.40;84.10
18147;DHT22;9199;48.832;9.182;2023-07-30T13:29:36;26.70;88.20
18147;DHT22;9199;48.832;9.182;2023-07-30T13:32:07;26.00;88.20
18147;DHT22;9199;48.832;9.182;2023-07-30T13:34:37;25.50;90.50
18147;DHT22;9199;48.832;9.182;2023-07-30T13:37:05;25.40;90.40
18147;DHT22;9199;48.832;9.182;2023-07-30T13:39:31;25.10;91.00
18147;DHT22;9199;48.832;9.182;2023-07-30T13:41:58;24.60;91.20
18147;DHT22;9199;48.832;9.182;2023-07-30T13:44:25;24.80;91.00
18147;DHT22;9199;48.832;9.182;2023-07-30T13:46:51;25.20;91.10
18147;DHT22;9199;48.832;9.182;2023-07-30T13:49:19;25.10;91.40
18147;DHT22;9199;48.832;9.182;2023-07-30T13:51:47;25.40;90.70
18147;DHT22;9199;48.832;9.182;2023-07-30T13:54:14;25.80;90.50
18147;DHT22;9199;48.832;9.182;2023-07-30T13:56:40;25.80;88.20
18147;DHT22;9199;48.832;9.182;2023-07-30T13:59:07;25.50;89.40
18147;DHT22;9199;48.832;9.182;2023-07-30T14:01:34;25.70;87.80
18147;DHT22;9199;48.832;9.182;2023-07-30T14:04:01;26.20;87.80
18147;DHT22;9199;48.832;9.182;2023-07-30T14:06:28;26.40;85.90
18147;DHT22;9199;48.832;9.182;2023-07-30T14:08:57;26.90;86.60
18147;DHT22;9199;48.832;9.182;2023-07-30T14:11:25;26.20;85.70
18147;DHT22;9199;48.832;9.182;2023-07-30T14:13:52;26.40;86.20
18147;DHT22;9199;48.832;9.182;2023-07-30T14:16:18;26.30;84.50
18147;DHT22;9199;48.832;9.182;2023-07-30T14:18:45;26.00;85.50
18147;DHT22;9199;48.832;9.182;2023-07-30T14:21:12;26.00;84.60
18147;DHT22;9199;48.832;9.182;2023-07-30T14:23:38;26.20;83.90
18147;DHT22;9199;48.832;9.182;2023-07-30T14:26:06;27.00;82.30
18147;DHT22;9199;48.832;9.182;2023-07-30T14:28:33;27.20;81.80
18147;DHT22;9199;48.832;9.182;2023-07-30T14:31:00;27.20;80.00
18147;DHT22;9199;48.832;9.182;2023-07-30T14:33:26;27.10;81.40
18147;DHT22;9199;48.832;9.182;2023-07-30T14:35:53;27.60;80.70
18147;DHT22;9199;48.832;9.182;2023-07-30T14:38:20;27.90;78.50
18147;DHT22;9199;48.832;9.182;2023-07-30T14:40:46;27.00;78.80
18147;DHT22;9199;48.832;9.182;2023-07-30T14:43:15;25.90;80.80
18147;DHT22;9199;48.832;9.182;2023-07-30T14:45:42;25.00;83.90
18147;DHT22;9199;48.832;9.182;2023-07-30T14:48:08;24.90;86.40
18147;DHT22;9199;48.832;9.182;2023-07-30T14:50:35;25.70;83.70
18147;DHT22;9199;48.832;9.182;2023-07-30T14:53:02;26.60;81.20
18147;DHT22;9199;48.832;9.182;2023-07-30T14:55:29;26.90;81.00
18147;DHT22;9199;48.832;9.182;2023-07-30T14:57:56;27.60;78.70
18147;DHT22;9199;48.832;9.182;2023-07-30T15:00:24;28.30;75.80
18147;DHT22;9199;48.832;9.182;2023-07-30T15:02:51;27.90;72.30
18147;DHT22;9199;48.832;9.182;2023-07-30T15:05:18;27.00;75.70
18147;DHT22;9199;48.832;9.182;2023-07-30T15:07:45;26.30;77.20
18147;DHT22;9199;48.832;9.182;2023-07-30T15:10:12;25.80;76.40
18147;DHT22;9199;48.832;9.182;2023-07-30T15:12:38;25.50;78.50
18147;DHT22;9199;48.832;9.182;2023-07-30T15:15:06;25.80;77.20
18147;DHT22;9199;48.832;9.182;2023-07-30T15:17:35;26.00;76.60
18147;DHT22;9199;48.832;9.182;2023-07-30T15:20:02;25.90;77.80
18147;DHT22;9199;48.832;9.182;2023-07-30T15:22:29;26.10;76.80
18147;DHT22;9199;48.832;9.182;2023-07-30T15:24:56;25.70;76.80
18147;DHT22;9199;48.832;9.182;2023-07-30T15:27:23;25.90;77.00
18147;DHT22;9199;48.832;9.182;2023-07-30T15:29:50;25.80;75.90
18147;DHT22;9199;48.832;9.182;2023-07-30T15:32:16;25.50;76.10
18147;DHT22;9199;48.832;9.182;2023-07-30T15:34:44;25.70;75.10
18147;DHT22;9199;48.832;9.182;2023-07-30T15:37:11;25.90;75.00
18147;DHT22;9199;48.832;9.182;2023-07-30T15:39:38;25.80;73.80
18147;DHT22;9199;48.832;9.182;2023-07-30T15:42:06;25.50;75.80
18147;DHT22;9199;48.832;9.182;2023-07-30T15:44:33;24.90;76.80
18147;DHT22;9199;48.832;9.182;2023-07-30T15:46:59;24.20;79.60